sensor_id;sensor_type;location;lat;lon;timestamp;temperature;humidity
7666;DHT22;3875;46.562;4.898;2024-03-02T00:00:26;8.70;82.20
7666;DHT22;3875;46.562;4.898;2024-03-02T00:02:52;8.70;82.20
7666;DHT22;3875;46.562;4.898;2024-03-02T00:05:20;8.80;82.20
7666;DHT22;3875;46.562;4.898;2024-03-02T00:07:53;8.80;82.30
7666;DHT22;3875;46.562;4.898;2024-03-02T00:10:25;8.80;82.30
7666;DHT22;3875;46.562;4.898;2024-03-02T00:12:57;8.80;82.30
7666;DHT22;3875;46.562;4.898;2024-03-02T00:15:48;8.80;82.30
7666;DHT22;3875;46.562;4.898;2024-03-02T00:18:20;8.80;82.30
7666;DHT22;3875;46.562;4.898;2024-03-02T00:20:47;8.80;82.30
7666;DHT22;3875;46.562;4.898;2024-03-02T00:23:16;8.80;82.40
7666;DHT22;3875;46.562;4.898;2024-03-02T00:25:56;8.80;82.50
7666;DHT22;3875;46.562;4.898;2024-03-02T00:28:23;8.80;82.60
7666;DHT22;3875;46.562;4.898;2024-03-02T00:30:57;8.80;82.60
7666;DHT22;3875;46.562;4.898;2024-03-02T00:33:26;8.80;82.70
7666;DHT22;3875;46.562;4.898;2024-03-02T00:35:52;8.80;82.80
7666;DHT22;3875;46.562;4.898;2024-03-02T00:38:18;8.80;82.80
7666;DHT22;3875;46.562;4.898;2024-03-02T00:40:45;8.80;83.00
7666;DHT22;3875;46.562;4.898;2024-03-02T00:45:56;8.70;83.10
7666;DHT22;3875;46.562;4.898;2024-03-02T00:48:23;8.80;83.10
7666;DHT22;3875;46.562;4.898;2024-03-02T00:50:52;8.70;83.10
7666;DHT22;3875;46.562;4.898;2024-03-02T00:53:22;8.80;83.20
7666;DHT22;3875;46.562;4.898;2024-03-02T00:55:50;8.70;83.20
7666;DHT22;3875;46.562;4.898;2024-03-02T00:58:15;8.70;83.30
7666;DHT22;3875;46.562;4.898;2024-03-02T01:00:41;8.70;83.40
7666;DHT22;3875;46.562;4.898;2024-03-02T01:03:07;8.70;83.40
7666;DHT22;3875;46.562;4.898;2024-03-02T01:05:33;8.80;83.30
7666;DHT22;3875;46.562;4.898;2024-03-02T01:07:59;8.70;83.40
7666;DHT22;3875;46.562;4.898;2024-03-02T01:10:24;8.80;83.30
7666;DHT22;3875;46.562;4.898;2024-03-02T01:12:51;8.80;83.30
7666;DHT22;3875;46.562;4.898;2024-03-02T01:15:17;8.80;83.40
7666;DHT22;3875;46.562;4.898;2024-03-02T01:17:42;8.80;83.40
7666;DHT22;3875;46.562;4.898;2024-03-02T01:20:09;8.80;83.40
7666;DHT22;3875;46.562;4.898;2024-03-02T01:22:35;8.80;83.40
7666;DHT22;3875;46.562;4.898;2024-03-02T01:25:01;8.80;83.50
7666;DHT22;3875;46.562;4.898;2024-03-02T01:27:27;8.80;83.50
7666;DHT22;3875;46.562;4.898;2024-03-02T01:29:53;8.80;83.70
7666;DHT22;3875;46.562;4.898;2024-03-02T01:32:20;8.80;83.80
7666;DHT22;3875;46.562;4.898;2024-03-02T01:34:45;8.80;83.80
7666;DHT22;3875;46.562;4.898;2024-03-02T01:37:11;8.70;83.90
7666;DHT22;3875;46.562;4.898;2024-03-02T01:39:37;8.80;83.90
7666;DHT22;3875;46.562;4.898;2024-03-02T01:42:03;8.80;83.90
7666;DHT22;3875;46.562;4.898;2024-03-02T01:44:28;8.80;83.90
7666;DHT22;3875;46.562;4.898;2024-03-02T01:46:54;8.80;83.90
7666;DHT22;3875;46.562;4.898;2024-03-02T01:49:20;8.80;83.90
7666;DHT22;3875;46.562;4.898;2024-03-02T01:51:46;8.80;83.90
7666;DHT22;3875;46.562;4.898;2024-03-02T01:54:11;8.90;83.80
7666;DHT22;3875;46.562;4.898;2024-03-02T01:56:37;8.90;83.70
7666;DHT22;3875;46.562;4.898;2024-03-02T01:59:03;8.90;83.80
7666;DHT22;3875;46.562;4.898;2024-03-02T02:01:29;8.90;83.80
7666;DHT22;3875;46.562;4.898;2024-03-02T02:03:54;8.90;83.80
7666;DHT22;3875;46.562;4.898;2024-03-02T02:06:21;8.90;83.80
7666;DHT22;3875;46.562;4.898;2024-03-02T02:08:47;8.90;83.80
7666;DHT22;3875;46.562;4.898;2024-03-02T02:11:17;8.90;83.80
7666;DHT22;3875;46.562;4.898;2024-03-02T02:13:43;8.90;83.80
7666;DHT22;3875;46.562;4.898;2024-03-02T02:16:08;8.90;83.80
7666;DHT22;3875;46.562;4.898;2024-03-02T02:18:35;8.90;83.80
7666;DHT22;3875;46.562;4.898;2024-03-02T02:21:03;8.90;83.80
7666;DHT22;3875;46.562;4.898;2024-03-02T02:23:29;8.90;83.70
7666;DHT22;3875;46.562;4.898;2024-03-02T02:25:54;8.90;83.70
7666;DHT22;3875;46.562;4.898;2024-03-02T02:28:20;9.00;83.80
7666;DHT22;3875;46.562;4.898;2024-03-02T02:30:46;9.00;83.80
7666;DHT22;3875;46.562;4.898;2024-03-02T02:33:12;9.00;83.80
7666;DHT22;3875;46.562;4.898;2024-03-02T02:35:38;9.00;83.70
7666;DHT22;3875;46.562;4.898;2024-03-02T02:38:04;8.90;83.80
7666;DHT22;3875;46.562;4.898;2024-03-02T02:40:30;8.90;83.80
7666;DHT22;3875;46.562;4.898;2024-03-02T02:42:59;8.90;83.80
7666;DHT22;3875;46.562;4.898;2024-03-02T02:45:25;8.90;83.80
7666;DHT22;3875;46.562;4.898;2024-03-02T02:47:50;8.90;83.80
7666;DHT22;3875;46.562;4.898;2024-03-02T02:50:16;8.90;83.70
7666;DHT22;3875;46.562;4.898;2024-03-02T02:52:42;8.90;83.80
7666;DHT22;3875;46.562;4.898;2024-03-02T02:55:10;8.90;83.90
7666;DHT22;3875;46.562;4.898;2024-03-02T02:57:37;8.90;83.90
7666;DHT22;3875;46.562;4.898;2024-03-02T03:00:11;8.90;83.90
7666;DHT22;3875;46.562;4.898;2024-03-02T03:02:41;8.90;83.90
7666;DHT22;3875;46.562;4.898;2024-03-02T03:05:08;8.90;83.80
7666;DHT22;3875;46.562;4.898;2024-03-02T03:07:34;8.90;83.90
7666;DHT22;3875;46.562;4.898;2024-03-02T03:10:00;8.90;84.00
7666;DHT22;3875;46.562;4.898;2024-03-02T03:12:26;8.80;84.10
7666;DHT22;3875;46.562;4.898;2024-03-02T03:14:52;8.80;84.20
7666;DHT22;3875;46.562;4.898;2024-03-02T03:17:18;8.80;84.20
7666;DHT22;3875;46.562;4.898;2024-03-02T03:19:43;8.80;84.20
7666;DHT22;3875;46.562;4.898;2024-03-02T03:22:09;8.80;84.20
7666;DHT22;3875;46.562;4.898;2024-03-02T03:24:34;8.70;84.20
7666;DHT22;3875;46.562;4.898;2024-03-02T03:27:00;8.70;84.30
7666;DHT22;3875;46.562;4.898;2024-03-02T03:29:26;8.70;84.40
7666;DHT22;3875;46.562;4.898;2024-03-02T03:31:52;8.70;84.40
7666;DHT22;3875;46.562;4.898;2024-03-02T03:34:17;8.60;84.40
7666;DHT22;3875;46.562;4.898;2024-03-02T03:36:43;8.60;84.40
7666;DHT22;3875;46.562;4.898;2024-03-02T03:39:08;8.60;84.50
7666;DHT22;3875;46.562;4.898;2024-03-02T03:41:34;8.60;84.40
7666;DHT22;3875;46.562;4.898;2024-03-02T03:44:00;8.50;84.40
7666;DHT22;3875;46.562;4.898;2024-03-02T03:46:25;8.50;84.40
7666;DHT22;3875;46.562;4.898;2024-03-02T03:48:51;8.50;84.40
7666;DHT22;3875;46.562;4.898;2024-03-02T03:51:17;8.50;84.50
7666;DHT22;3875;46.562;4.898;2024-03-02T03:53:42;8.50;84.40
7666;DHT22;3875;46.562;4.898;2024-03-02T03:56:08;8.40;84.50
7666;DHT22;3875;46.562;4.898;2024-03-02T03:58:33;8.40;84.50
7666;DHT22;3875;46.562;4.898;2024-03-02T04:00:59;8.40;84.50
7666;DHT22;3875;46.562;4.898;2024-03-02T04:03:25;8.40;84.60
7666;DHT22;3875;46.562;4.898;2024-03-02T04:05:50;8.40;84.60
7666;DHT22;3875;46.562;4.898;2024-03-02T04:08:16;8.40;84.80
7666;DHT22;3875;46.562;4.898;2024-03-02T04:10:42;8.40;84.80
7666;DHT22;3875;46.562;4.898;2024-03-02T04:13:08;8.30;84.90
7666;DHT22;3875;46.562;4.898;2024-03-02T04:15:33;8.30;84.90
7666;DHT22;3875;46.562;4.898;2024-03-02T04:17:59;8.30;84.90
7666;DHT22;3875;46.562;4.898;2024-03-02T04:20:25;8.30;84.90
7666;DHT22;3875;46.562;4.898;2024-03-02T04:22:51;8.30;84.90
7666;DHT22;3875;46.562;4.898;2024-03-02T04:25:16;8.30;84.90
7666;DHT22;3875;46.562;4.898;2024-03-02T04:27:42;8.30;85.00
7666;DHT22;3875;46.562;4.898;2024-03-02T04:30:07;8.30;85.00
7666;DHT22;3875;46.562;4.898;2024-03-02T04:32:33;8.30;85.10
7666;DHT22;3875;46.562;4.898;2024-03-02T04:34:59;8.20;85.20
7666;DHT22;3875;46.562;4.898;2024-03-02T04:37:25;8.20;85.20
7666;DHT22;3875;46.562;4.898;2024-03-02T04:39:50;8.20;85.40
7666;DHT22;3875;46.562;4.898;2024-03-02T04:42:16;8.20;85.40
7666;DHT22;3875;46.562;4.898;2024-03-02T04:44:42;8.10;85.50
7666;DHT22;3875;46.562;4.898;2024-03-02T04:47:07;8.10;85.60
7666;DHT22;3875;46.562;4.898;2024-03-02T04:49:33;8.10;85.70
7666;DHT22;3875;46.562;4.898;2024-03-02T04:51:59;8.10;85.70
7666;DHT22;3875;46.562;4.898;2024-03-02T04:54:24;8.10;85.70
7666;DHT22;3875;46.562;4.898;2024-03-02T04:56:50;8.10;85.80
7666;DHT22;3875;46.562;4.898;2024-03-02T04:59:17;8.10;85.80
7666;DHT22;3875;46.562;4.898;2024-03-02T05:01:44;8.10;85.70
7666;DHT22;3875;46.562;4.898;2024-03-02T05:04:09;8.10;85.80
7666;DHT22;3875;46.562;4.898;2024-03-02T05:06:38;8.10;85.90
7666;DHT22;3875;46.562;4.898;2024-03-02T05:09:04;8.10;85.90
7666;DHT22;3875;46.562;4.898;2024-03-02T05:11:30;8.10;86.00
7666;DHT22;3875;46.562;4.898;2024-03-02T05:14:05;8.10;86.00
7666;DHT22;3875;46.562;4.898;2024-03-02T05:16:34;8.10;86.00
7666;DHT22;3875;46.562;4.898;2024-03-02T05:19:01;8.10;86.10
7666;DHT22;3875;46.562;4.898;2024-03-02T05:21:27;8.10;86.00
7666;DHT22;3875;46.562;4.898;2024-03-02T05:23:53;8.10;86.10
7666;DHT22;3875;46.562;4.898;2024-03-02T05:26:18;8.10;86.10
7666;DHT22;3875;46.562;4.898;2024-03-02T05:28:44;8.10;86.20
7666;DHT22;3875;46.562;4.898;2024-03-02T05:31:15;8.10;86.20
7666;DHT22;3875;46.562;4.898;2024-03-02T05:33:42;8.10;86.20
7666;DHT22;3875;46.562;4.898;2024-03-02T05:36:08;8.10;86.20
7666;DHT22;3875;46.562;4.898;2024-03-02T05:38:36;8.10;86.20
7666;DHT22;3875;46.562;4.898;2024-03-02T05:41:03;8.10;86.30
7666;DHT22;3875;46.562;4.898;2024-03-02T05:43:29;8.10;86.30
7666;DHT22;3875;46.562;4.898;2024-03-02T05:45:54;8.10;86.30
7666;DHT22;3875;46.562;4.898;2024-03-02T05:48:20;8.10;86.30
7666;DHT22;3875;46.562;4.898;2024-03-02T05:50:46;8.10;86.30
7666;DHT22;3875;46.562;4.898;2024-03-02T05:53:12;8.10;86.30
7666;DHT22;3875;46.562;4.898;2024-03-02T05:55:37;8.10;86.30
7666;DHT22;3875;46.562;4.898;2024-03-02T05:58:03;8.10;86.40
7666;DHT22;3875;46.562;4.898;2024-03-02T06:00:31;8.10;86.40
7666;DHT22;3875;46.562;4.898;2024-03-02T06:02:57;8.10;86.70
7666;DHT22;3875;46.562;4.898;2024-03-02T06:05:23;8.10;86.70
7666;DHT22;3875;46.562;4.898;2024-03-02T06:07:49;8.10;86.70
7666;DHT22;3875;46.562;4.898;2024-03-02T06:10:14;8.10;86.80
7666;DHT22;3875;46.562;4.898;2024-03-02T06:12:40;8.10;86.80
7666;DHT22;3875;46.562;4.898;2024-03-02T06:15:06;8.10;86.80
7666;DHT22;3875;46.562;4.898;2024-03-02T06:17:32;8.10;86.80
7666;DHT22;3875;46.562;4.898;2024-03-02T06:19:58;8.10;86.80
7666;DHT22;3875;46.562;4.898;2024-03-02T06:22:23;8.20;86.80
7666;DHT22;3875;46.562;4.898;2024-03-02T06:24:50;8.20;86.90
7666;DHT22;3875;46.562;4.898;2024-03-02T06:27:16;8.20;86.80
7666;DHT22;3875;46.562;4.898;2024-03-02T06:29:42;8.20;86.80
7666;DHT22;3875;46.562;4.898;2024-03-02T06:32:08;8.20;86.80
7666;DHT22;3875;46.562;4.898;2024-03-02T06:34:33;8.20;86.90
7666;DHT22;3875;46.562;4.898;2024-03-02T06:36:59;8.20;87.00
7666;DHT22;3875;46.562;4.898;2024-03-02T06:39:24;8.30;87.10
7666;DHT22;3875;46.562;4.898;2024-03-02T06:41:51;8.30;87.10
7666;DHT22;3875;46.562;4.898;2024-03-02T06:44:17;8.30;87.10
7666;DHT22;3875;46.562;4.898;2024-03-02T06:46:43;8.30;87.10
7666;DHT22;3875;46.562;4.898;2024-03-02T06:49:08;8.30;87.20
7666;DHT22;3875;46.562;4.898;2024-03-02T06:51:36;8.40;87.20
7666;DHT22;3875;46.562;4.898;2024-03-02T06:54:02;8.40;87.10
7666;DHT22;3875;46.562;4.898;2024-03-02T06:56:27;8.50;87.20
7666;DHT22;3875;46.562;4.898;2024-03-02T06:58:53;8.50;87.20
7666;DHT22;3875;46.562;4.898;2024-03-02T07:01:19;8.50;87.20
7666;DHT22;3875;46.562;4.898;2024-03-02T07:03:46;8.50;87.20
7666;DHT22;3875;46.562;4.898;2024-03-02T07:06:11;8.60;87.20
7666;DHT22;3875;46.562;4.898;2024-03-02T07:08:37;8.60;87.10
7666;DHT22;3875;46.562;4.898;2024-03-02T07:11:03;8.60;87.10
7666;DHT22;3875;46.562;4.898;2024-03-02T07:13:28;8.60;87.20
7666;DHT22;3875;46.562;4.898;2024-03-02T07:15:54;8.70;87.20
7666;DHT22;3875;46.562;4.898;2024-03-02T07:18:25;8.70;87.10
7666;DHT22;3875;46.562;4.898;2024-03-02T07:20:51;8.70;87.20
7666;DHT22;3875;46.562;4.898;2024-03-02T07:23:17;8.80;87.20
7666;DHT22;3875;46.562;4.898;2024-03-02T07:25:42;8.80;87.20
7666;DHT22;3875;46.562;4.898;2024-03-02T07:28:08;8.80;87.20
7666;DHT22;3875;46.562;4.898;2024-03-02T07:30:34;8.80;87.30
7666;DHT22;3875;46.562;4.898;2024-03-02T07:32:59;8.90;87.30
7666;DHT22;3875;46.562;4.898;2024-03-02T07:35:25;8.90;87.30
7666;DHT22;3875;46.562;4.898;2024-03-02T07:37:57;8.90;87.30
7666;DHT22;3875;46.562;4.898;2024-03-02T07:40:23;9.00;87.30
7666;DHT22;3875;46.562;4.898;2024-03-02T07:42:49;9.00;87.30
7666;DHT22;3875;46.562;4.898;2024-03-02T07:45:14;9.00;87.30
7666;DHT22;3875;46.562;4.898;2024-03-02T07:47:40;9.10;87.20
7666;DHT22;3875;46.562;4.898;2024-03-02T07:50:06;9.10;87.30
7666;DHT22;3875;46.562;4.898;2024-03-02T07:52:33;9.20;87.30
7666;DHT22;3875;46.562;4.898;2024-03-02T07:54:58;9.20;87.30
7666;DHT22;3875;46.562;4.898;2024-03-02T07:57:25;9.30;87.30
7666;DHT22;3875;46.562;4.898;2024-03-02T07:59:50;9.30;87.30
7666;DHT22;3875;46.562;4.898;2024-03-02T08:02:16;9.40;87.30
7666;DHT22;3875;46.562;4.898;2024-03-02T08:04:42;9.40;87.30
7666;DHT22;3875;46.562;4.898;2024-03-02T08:07:08;9.50;87.30
7666;DHT22;3875;46.562;4.898;2024-03-02T08:09:34;9.60;87.30
7666;DHT22;3875;46.562;4.898;2024-03-02T08:12:00;9.60;87.40
7666;DHT22;3875;46.562;4.898;2024-03-02T08:14:26;9.60;87.20
7666;DHT22;3875;46.562;4.898;2024-03-02T08:16:51;9.70;87.10
7666;DHT22;3875;46.562;4.898;2024-03-02T08:19:17;9.70;87.20
7666;DHT22;3875;46.562;4.898;2024-03-02T08:21:43;9.80;87.20
7666;DHT22;3875;46.562;4.898;2024-03-02T08:24:09;9.80;87.30
7666;DHT22;3875;46.562;4.898;2024-03-02T08:26:35;9.90;87.70
7666;DHT22;3875;46.562;4.898;2024-03-02T08:29:01;9.90;87.80
7666;DHT22;3875;46.562;4.898;2024-03-02T08:31:29;9.90;88.00
7666;DHT22;3875;46.562;4.898;2024-03-02T08:33:54;9.90;88.40
7666;DHT22;3875;46.562;4.898;2024-03-02T08:36:20;9.80;88.90
7666;DHT22;3875;46.562;4.898;2024-03-02T08:38:49;9.80;89.20
7666;DHT22;3875;46.562;4.898;2024-03-02T08:41:14;9.80;89.50
7666;DHT22;3875;46.562;4.898;2024-03-02T08:43:42;9.80;89.80
7666;DHT22;3875;46.562;4.898;2024-03-02T08:46:08;9.80;90.20
7666;DHT22;3875;46.562;4.898;2024-03-02T08:48:34;9.80;90.30
7666;DHT22;3875;46.562;4.898;2024-03-02T08:51:00;9.80;90.60
7666;DHT22;3875;46.562;4.898;2024-03-02T08:53:25;9.70;91.00
7666;DHT22;3875;46.562;4.898;2024-03-02T08:55:52;9.70;91.00
7666;DHT22;3875;46.562;4.898;2024-03-02T08:58:17;9.70;91.30
7666;DHT22;3875;46.562;4.898;2024-03-02T09:00:43;9.60;91.60
7666;DHT22;3875;46.562;4.898;2024-03-02T09:03:09;9.60;91.80
7666;DHT22;3875;46.562;4.898;2024-03-02T09:05:35;9.60;92.00
7666;DHT22;3875;46.562;4.898;2024-03-02T09:08:01;9.60;92.10
7666;DHT22;3875;46.562;4.898;2024-03-02T09:10:29;9.60;92.30
7666;DHT22;3875;46.562;4.898;2024-03-02T09:12:54;9.60;92.40
7666;DHT22;3875;46.562;4.898;2024-03-02T09:15:20;9.60;92.50
7666;DHT22;3875;46.562;4.898;2024-03-02T09:17:46;9.60;92.50
7666;DHT22;3875;46.562;4.898;2024-03-02T09:20:11;9.60;92.60
7666;DHT22;3875;46.562;4.898;2024-03-02T09:22:37;9.60;92.70
7666;DHT22;3875;46.562;4.898;2024-03-02T09:25:03;9.60;92.90
7666;DHT22;3875;46.562;4.898;2024-03-02T09:27:28;9.60;92.90
7666;DHT22;3875;46.562;4.898;2024-03-02T09:29:54;9.60;93.00
7666;DHT22;3875;46.562;4.898;2024-03-02T09:32:20;9.70;93.10
7666;DHT22;3875;46.562;4.898;2024-03-02T09:34:45;9.70;93.10
7666;DHT22;3875;46.562;4.898;2024-03-02T09:37:13;9.70;93.20
7666;DHT22;3875;46.562;4.898;2024-03-02T09:39:39;9.70;93.20
7666;DHT22;3875;46.562;4.898;2024-03-02T09:42:05;9.70;93.20
7666;DHT22;3875;46.562;4.898;2024-03-02T09:44:31;9.80;93.30
7666;DHT22;3875;46.562;4.898;2024-03-02T09:46:58;9.80;93.30
7666;DHT22;3875;46.562;4.898;2024-03-02T09:49:23;9.80;93.30
7666;DHT22;3875;46.562;4.898;2024-03-02T09:51:49;9.80;93.40
7666;DHT22;3875;46.562;4.898;2024-03-02T09:54:16;9.90;93.50
7666;DHT22;3875;46.562;4.898;2024-03-02T09:56:41;10.00;93.40
7666;DHT22;3875;46.562;4.898;2024-03-02T09:59:07;10.00;93.40
7666;DHT22;3875;46.562;4.898;2024-03-02T10:01:33;10.10;93.30
7666;DHT22;3875;46.562;4.898;2024-03-02T10:03:59;10.20;93.40
7666;DHT22;3875;46.562;4.898;2024-03-02T10:07:13;10.30;93.30
7666;DHT22;3875;46.562;4.898;2024-03-02T10:09:41;10.40;93.10
7666;DHT22;3875;46.562;4.898;2024-03-02T10:12:09;10.40;92.90
7666;DHT22;3875;46.562;4.898;2024-03-02T10:18:41;10.60;92.20
7666;DHT22;3875;46.562;4.898;2024-03-02T10:21:39;10.60;92.10
7666;DHT22;3875;46.562;4.898;2024-03-02T10:24:15;10.70;92.00
7666;DHT22;3875;46.562;4.898;2024-03-02T10:26:40;10.80;92.10
7666;DHT22;3875;46.562;4.898;2024-03-02T10:32:32;11.10;91.50
7666;DHT22;3875;46.562;4.898;2024-03-02T10:38:18;11.40;90.20
7666;DHT22;3875;46.562;4.898;2024-03-02T10:40:52;11.40;89.90
7666;DHT22;3875;46.562;4.898;2024-03-02T10:43:51;11.50;90.20
7666;DHT22;3875;46.562;4.898;2024-03-02T10:46:50;11.50;89.60
7666;DHT22;3875;46.562;4.898;2024-03-02T10:56:29;11.70;88.50
7666;DHT22;3875;46.562;4.898;2024-03-02T11:08:53;11.80;87.30
7666;DHT22;3875;46.562;4.898;2024-03-02T11:11:39;11.80;87.40
7666;DHT22;3875;46.562;4.898;2024-03-02T11:14:24;11.80;87.40
7666;DHT22;3875;46.562;4.898;2024-03-02T11:16:51;11.70;86.20
7666;DHT22;3875;46.562;4.898;2024-03-02T11:19:21;11.80;86.20
7666;DHT22;3875;46.562;4.898;2024-03-02T11:21:53;11.80;86.40
7666;DHT22;3875;46.562;4.898;2024-03-02T11:31:57;11.80;86.10
7666;DHT22;3875;46.562;4.898;2024-03-02T11:34:49;11.80;85.80
7666;DHT22;3875;46.562;4.898;2024-03-02T11:37:19;11.80;85.40
7666;DHT22;3875;46.562;4.898;2024-03-02T11:39:51;11.80;85.60
7666;DHT22;3875;46.562;4.898;2024-03-02T11:42:17;11.80;85.30
7666;DHT22;3875;46.562;4.898;2024-03-02T11:44:45;11.80;85.30
7666;DHT22;3875;46.562;4.898;2024-03-02T11:47:16;11.80;85.50
7666;DHT22;3875;46.562;4.898;2024-03-02T11:49:43;11.80;85.40
7666;DHT22;3875;46.562;4.898;2024-03-02T11:52:13;11.90;85.00
7666;DHT22;3875;46.562;4.898;2024-03-02T11:54:42;11.90;85.10
7666;DHT22;3875;46.562;4.898;2024-03-02T12:08:04;12.50;84.30
7666;DHT22;3875;46.562;4.898;2024-03-02T12:11:07;12.80;83.80
7666;DHT22;3875;46.562;4.898;2024-03-02T12:13:32;13.20;82.70
7666;DHT22;3875;46.562;4.898;2024-03-02T12:15:59;13.40;81.50
7666;DHT22;3875;46.562;4.898;2024-03-02T12:18:32;13.40;81.40
7666;DHT22;3875;46.562;4.898;2024-03-02T12:21:10;13.60;80.40
7666;DHT22;3875;46.562;4.898;2024-03-02T12:23:36;13.70;79.90
7666;DHT22;3875;46.562;4.898;2024-03-02T12:26:02;13.80;79.60
7666;DHT22;3875;46.562;4.898;2024-03-02T12:28:31;14.10;79.50
7666;DHT22;3875;46.562;4.898;2024-03-02T12:30:57;14.40;79.10
7666;DHT22;3875;46.562;4.898;2024-03-02T12:33:23;14.70;78.50
7666;DHT22;3875;46.562;4.898;2024-03-02T12:35:54;14.60;77.50
7666;DHT22;3875;46.562;4.898;2024-03-02T12:38:21;14.50;77.80
7666;DHT22;3875;46.562;4.898;2024-03-02T12:40:51;14.50;78.30
7666;DHT22;3875;46.562;4.898;2024-03-02T12:43:18;14.70;77.70
7666;DHT22;3875;46.562;4.898;2024-03-02T12:45:45;15.10;77.70
7666;DHT22;3875;46.562;4.898;2024-03-02T12:48:11;15.30;76.40
7666;DHT22;3875;46.562;4.898;2024-03-02T12:50:39;15.30;75.90
7666;DHT22;3875;46.562;4.898;2024-03-02T12:53:14;15.50;75.80
7666;DHT22;3875;46.562;4.898;2024-03-02T12:55:41;15.90;75.90
7666;DHT22;3875;46.562;4.898;2024-03-02T12:58:38;16.30;75.20
7666;DHT22;3875;46.562;4.898;2024-03-02T13:05:10;16.70;74.30
7666;DHT22;3875;46.562;4.898;2024-03-02T13:07:37;16.70;73.00
7666;DHT22;3875;46.562;4.898;2024-03-02T13:10:03;16.50;73.10
7666;DHT22;3875;46.562;4.898;2024-03-02T13:12:30;16.30;73.40
7666;DHT22;3875;46.562;4.898;2024-03-02T13:15:06;16.30;73.80
7666;DHT22;3875;46.562;4.898;2024-03-02T13:17:35;16.40;74.10
7666;DHT22;3875;46.562;4.898;2024-03-02T13:20:02;16.30;73.70
7666;DHT22;3875;46.562;4.898;2024-03-02T13:22:29;16.10;73.30
7666;DHT22;3875;46.562;4.898;2024-03-02T13:24:56;15.80;73.40
7666;DHT22;3875;46.562;4.898;2024-03-02T13:27:22;15.60;74.60
7666;DHT22;3875;46.562;4.898;2024-03-02T13:29:48;15.40;75.10
7666;DHT22;3875;46.562;4.898;2024-03-02T13:32:15;15.40;75.00
7666;DHT22;3875;46.562;4.898;2024-03-02T13:35:00;15.30;75.70
7666;DHT22;3875;46.562;4.898;2024-03-02T13:37:26;15.40;76.00
7666;DHT22;3875;46.562;4.898;2024-03-02T13:46:55;15.30;74.80
7666;DHT22;3875;46.562;4.898;2024-03-02T13:49:24;15.20;74.80
7666;DHT22;3875;46.562;4.898;2024-03-02T13:52:06;15.20;75.00
7666;DHT22;3875;46.562;4.898;2024-03-02T13:54:59;15.10;75.40
7666;DHT22;3875;46.562;4.898;2024-03-02T13:57:28;15.10;75.40
7666;DHT22;3875;46.562;4.898;2024-03-02T13:59:59;15.10;74.90
7666;DHT22;3875;46.562;4.898;2024-03-02T14:02:36;15.10;74.40
7666;DHT22;3875;46.562;4.898;2024-03-02T14:05:01;15.10;75.00
7666;DHT22;3875;46.562;4.898;2024-03-02T14:10:49;15.10;74.40
7666;DHT22;3875;46.562;4.898;2024-03-02T14:13:25;15.10;73.90
7666;DHT22;3875;46.562;4.898;2024-03-02T14:15:59;15.00;73.90
7666;DHT22;3875;46.562;4.898;2024-03-02T14:18:25;15.00;74.30
7666;DHT22;3875;46.562;4.898;2024-03-02T14:20:51;14.90;73.90
7666;DHT22;3875;46.562;4.898;2024-03-02T14:23:18;14.90;74.70
7666;DHT22;3875;46.562;4.898;2024-03-02T14:25:47;14.90;74.90
7666;DHT22;3875;46.562;4.898;2024-03-02T14:28:13;14.90;75.00
7666;DHT22;3875;46.562;4.898;2024-03-02T14:30:41;14.80;74.90
7666;DHT22;3875;46.562;4.898;2024-03-02T14:33:07;14.80;75.10
7666;DHT22;3875;46.562;4.898;2024-03-02T14:35:33;14.80;75.30
7666;DHT22;3875;46.562;4.898;2024-03-02T14:38:01;14.80;75.70
7666;DHT22;3875;46.562;4.898;2024-03-02T14:40:27;14.80;75.50
7666;DHT22;3875;46.562;4.898;2024-03-02T14:42:54;14.80;75.60
7666;DHT22;3875;46.562;4.898;2024-03-02T14:45:20;14.70;75.70
7666;DHT22;3875;46.562;4.898;2024-03-02T14:47:46;14.70;75.90
7666;DHT22;3875;46.562;4.898;2024-03-02T14:50:12;14.70;75.60
7666;DHT22;3875;46.562;4.898;2024-03-02T14:52:38;14.70;76.00
7666;DHT22;3875;46.562;4.898;2024-03-02T14:55:04;14.70;76.00
7666;DHT22;3875;46.562;4.898;2024-03-02T14:57:29;14.70;76.10
7666;DHT22;3875;46.562;4.898;2024-03-02T14:59:55;14.60;76.30
7666;DHT22;3875;46.562;4.898;2024-03-02T15:02:25;14.60;76.20
7666;DHT22;3875;46.562;4.898;2024-03-02T15:04:54;14.60;76.30
7666;DHT22;3875;46.562;4.898;2024-03-02T15:07:20;14.50;76.10
7666;DHT22;3875;46.562;4.898;2024-03-02T15:10:27;14.50;76.40
7666;DHT22;3875;46.562;4.898;2024-03-02T15:12:55;14.50;76.70
7666;DHT22;3875;46.562;4.898;2024-03-02T15:15:20;14.40;76.10
7666;DHT22;3875;46.562;4.898;2024-03-02T15:17:46;14.30;76.50
7666;DHT22;3875;46.562;4.898;2024-03-02T15:20:12;14.30;77.00
7666;DHT22;3875;46.562;4.898;2024-03-02T15:22:37;14.20;77.30
7666;DHT22;3875;46.562;4.898;2024-03-02T15:25:03;14.20;77.70
7666;DHT22;3875;46.562;4.898;2024-03-02T15:27:38;14.10;78.30
7666;DHT22;3875;46.562;4.898;2024-03-02T15:30:06;14.10;78.80
7666;DHT22;3875;46.562;4.898;2024-03-02T15:32:50;14.10;79.10
7666;DHT22;3875;46.562;4.898;2024-03-02T15:49:03;13.60;81.50
7666;DHT22;3875;46.562;4.898;2024-03-02T15:55:01;13.60;82.60
7666;DHT22;3875;46.562;4.898;2024-03-02T15:57:38;13.70;83.10
7666;DHT22;3875;46.562;4.898;2024-03-02T16:00:07;13.70;83.00
7666;DHT22;3875;46.562;4.898;2024-03-02T16:02:50;13.70;83.20
7666;DHT22;3875;46.562;4.898;2024-03-02T16:05:26;13.70;83.40
7666;DHT22;3875;46.562;4.898;2024-03-02T16:07:51;13.80;83.70
7666;DHT22;3875;46.562;4.898;2024-03-02T16:10:17;13.80;83.80
7666;DHT22;3875;46.562;4.898;2024-03-02T16:12:48;13.80;84.10
7666;DHT22;3875;46.562;4.898;2024-03-02T16:15:28;13.90;84.10
7666;DHT22;3875;46.562;4.898;2024-03-02T16:18:01;13.90;83.80
7666;DHT22;3875;46.562;4.898;2024-03-02T16:20:59;13.90;83.80
7666;DHT22;3875;46.562;4.898;2024-03-02T16:51:20;13.20;83.00
7666;DHT22;3875;46.562;4.898;2024-03-02T17:07:23;13.30;80.40
7666;DHT22;3875;46.562;4.898;2024-03-02T17:10:38;13.30;80.10
7666;DHT22;3875;46.562;4.898;2024-03-02T17:20:29;13.40;79.40
7666;DHT22;3875;46.562;4.898;2024-03-02T17:22:55;13.30;79.30
7666;DHT22;3875;46.562;4.898;2024-03-02T18:10:28;13.50;75.50
7666;DHT22;3875;46.562;4.898;2024-03-02T18:13:59;13.50;75.30
7666;DHT22;3875;46.562;4.898;2024-03-02T18:20:23;13.40;74.90
7666;DHT22;3875;46.562;4.898;2024-03-02T18:26:40;13.50;74.60
7666;DHT22;3875;46.562;4.898;2024-03-02T18:40:30;13.40;73.90
7666;DHT22;3875;46.562;4.898;2024-03-02T18:43:18;13.30;73.60
7666;DHT22;3875;46.562;4.898;2024-03-02T18:45:47;13.30;73.70
7666;DHT22;3875;46.562;4.898;2024-03-02T18:48:12;13.30;73.90
7666;DHT22;3875;46.562;4.898;2024-03-02T18:50:38;13.20;73.80
7666;DHT22;3875;46.562;4.898;2024-03-02T18:53:04;13.20;74.00
7666;DHT22;3875;46.562;4.898;2024-03-02T18:55:44;13.20;73.80
7666;DHT22;3875;46.562;4.898;2024-03-02T18:58:40;13.10;73.60
7666;DHT22;3875;46.562;4.898;2024-03-02T19:01:08;13.10;73.60
7666;DHT22;3875;46.562;4.898;2024-03-02T19:03:36;13.10;73.60
7666;DHT22;3875;46.562;4.898;2024-03-02T19:06:02;13.10;73.90
7666;DHT22;3875;46.562;4.898;2024-03-02T19:08:37;13.00;73.80
7666;DHT22;3875;46.562;4.898;2024-03-02T19:11:05;13.00;73.90
7666;DHT22;3875;46.562;4.898;2024-03-02T19:13:30;13.00;73.80
7666;DHT22;3875;46.562;4.898;2024-03-02T19:15:57;12.90;74.00
7666;DHT22;3875;46.562;4.898;2024-03-02T19:18:23;12.90;74.00
7666;DHT22;3875;46.562;4.898;2024-03-02T19:20:48;12.80;74.00
7666;DHT22;3875;46.562;4.898;2024-03-02T19:23:17;12.80;74.30
7666;DHT22;3875;46.562;4.898;2024-03-02T19:25:42;12.70;74.30
7666;DHT22;3875;46.562;4.898;2024-03-02T19:28:08;12.70;74.30
7666;DHT22;3875;46.562;4.898;2024-03-02T19:30:34;12.70;74.20
7666;DHT22;3875;46.562;4.898;2024-03-02T19:33:00;12.70;74.40